Airfield :
LOGIN :

Register | Disclaimer

   EN    FR    IT 

 










Legend :    VFR   Marginal VFR   IFR   Intensive IFR   Very Intensive IFR
Visi :
Ceiling :
>= 8 km
>= 3000ft
5 to 8 km
1000 to 3000 ft
1500m to 5 km
500 to 1000 ft
800 to 1500m
200 to 500 ft
< 800m
< 200 ft
Symbols :   Thunderstorms  Fog  Heavy snow  Heavy precipitations  Wind > 20 kt
SIGMETs :     Misc.  Thunderstorms  Icing  Turbulence  Mountain Waves  Volcanic Ashes







- Airport Elevation : 53 ft
- IATA code : AGP


LEMG - Malaga

CURRENT METAR :
  • 250600Z 30004KT CAVOK 20/15 Q1015 NOSIG

EXPIRED METARs :
  • 250530Z 28004KT CAVOK 21/15 Q1015 NOSIG
  • 250500Z 26003KT 230V290 CAVOK 21/15 Q1015 NOSIG
  • 250430Z 24003KT 210V290 CAVOK 21/15 Q1015 NOSIG
  • 250400Z 27004KT 210V310 CAVOK 21/15 Q1015 NOSIG
  • 250330Z 30006KT CAVOK 21/15 Q1015 NOSIG

TAF TAF LEMG
Valid from the 25 at 06:00 until the 26 at 06:00 UTC


250500Z 2506/2606 31005KT CAVOK TX28/2514Z TN19/2605Z
BECMG 2510/2512 16009KT
BECMG 2520/2522 VRB03KT
No reported NOTAMs for that airfield.
1 SIGMET reported for the Madrid FIR (LECM) :
 
Embedded thunderstorms
LECM SIGMET 2 VALID 250500/250700 LEVA
LECM MADRID FIR/UIR EMBD TS OBS AT 0501Z W OF LINE N4157 W00935 - N4501 W00935 TOP FL450 MOV NW 20KT NC=



MET'MAP, your aeronautical weather chart ! - Copyright ORBIFLY December 2007 - Disclaimer

ORBIFLY MET'MAP TEAM :

Programming & Development : Alexandra Zaïnal
Concept & Development : Baudouin d'Aumeries
Co-Development & Prog : Marc-Olivier Méhu
Technical & hardware support : Manuel Goepfert

Contact : metmap@orbifly.com




SOURCES & CREDITS :

   NOAA